ソルト・レーク・シティ国際空港の過去48時間の天気

ソルト・レーク・シティ国際空港 (Salt Lake City, Salt Lake City International Airport)

現在時刻: 1/22 20:26 MST (1/23 03:26 UTC) 以下の時間は現地時間です。

過去48時間のMETAR気象情報
時間 風向 風速(m/s) 視程 気温(℃) 湿度(%) 気圧(hPa) 天気現象
22 19:54 南東 2 10km以上 4.4 67 1023.9
22 18:54 北北西 2 10km以上 5 67 1023.7
22 17:54 西 3 10km以上 5 62 1023.1
22 16:54 静穏 0 10km以上 5.6 67 1022.4
22 15:54 静穏 0 10km以上 5.6 73 1021.9
22 14:54 2 10km以上 6.1 70 1021.4
22 14:23 静穏 0 10km以上 5 79 1022
22 14:16 静穏 0 10km以上 5 79 1022
22 13:54 北西 2 10km以上 5 79 1021.5
22 13:40 西北西 2 10km以上 5 79 1022
22 12:54 北西 2 10km以上 4.4 86 1021.6
22 12:22 西 2 10km以上 3.9 86 1022
22 11:54 静穏 0 10km以上 3.9 89 1021.6
22 11:31 2 10km以上 3.3 89 1022
22 11:19 2 10km以上 2.8 96 1022 弱い雨 もや
22 10:54 北北西 4 6450m 2.8 92 1021.8 弱い雨 もや
22 10:24 北北西 5 8050m 2.8 89 1021 弱い雨 もや
22 09:54 北西 4 10km以上 3.3 89 1020.8 弱い雨 もや
22 08:54 静穏 0 10km以上 4.4 86 1019.8
22 07:54 南南東 2 10km以上 3.3 92 1019.3
22 06:54 南東 2 10km以上 2.8 89 1017.9
22 05:54 東南東 2 10km以上 3.3 89 1017.6
22 04:54 東南東 4 10km以上 3.3 89 1016.7 弱い雨
22 03:54 東南東 4 10km以上 2.8 89 1016.6 弱い雨
22 02:54 南東 3 10km以上 3.3 89 1016.8
22 01:54 東南東 4 10km以上 3.3 85 1016.9
22 00:54 静穏 0 10km以上 3.3 85 1017.1
21 23:54 東南東 3 10km以上 3.3 85 1017
21 22:54 南東 4 10km以上 3.3 85 1015.9
21 21:54 南南東 2 10km以上 3.3 85 1016
21 20:54 東南東 4 10km以上 3.3 85 1015.9
21 19:54 南東 3 8050m 1.7 85 1017.1 もや
21 18:54 南東 2 8050m 1.7 82 1017.3 煙霧
21 17:54 西 3 8050m 2.8 78 1017.2 煙霧
21 16:54 南東 2 10km以上 6.1 76 1015.8
21 15:54 南東 2 10km以上 6.1 76 1015.6
21 14:54 不定 2 10km以上 5.6 76 1015.7 弱い雨
21 13:54 南南東 2 10km以上 4.4 79 1015.2
21 12:54 南東 3 10km以上 2.8 78 1016.6
21 11:54 東南東 4 10km以上 1.7 82 1017.8
21 10:54 西北西 3 10km以上 0.6 82 1018.7 弱い雨
21 09:54 3 10km以上 1.1 79 1018.2
21 08:54 静穏 0 10km以上 0.6 78 1017.5
21 07:54 静穏 0 10km以上 0 81 1017.4
21 06:54 静穏 0 10km以上 -0.6 82 1017.3
21 05:54 3 10km以上 -1.1 88 1017.5
21 04:54 静穏 0 10km以上 -0.6 85 1017.2
21 03:54 静穏 0 10km以上 -1.1 88 1017.5
21 02:54 静穏 0 10km以上 -0.6 82 1018
21 01:54 西北西 2 10km以上 0 81 1018.4
21 00:54 南南西 2 10km以上 0 75 1019.3
20 23:54 北北西 2 10km以上 0.6 72 1019.9
20 22:54 2 10km以上 -0.6 82 1020.2
20 21:54 3 10km以上 -0.6 82 1020.9
20 20:54 西北西 2 10km以上 0.6 75 1020.2
KSLC 230254Z 13004KT 10SM FEW040 BKN055 OVC075 04/M01 A3023 RMK AO2 SLP239 T00441011 51011
KSLC 230154Z 34003KT 10SM FEW020 BKN047 OVC065 05/M01 A3023 RMK AO2 SLP237 T00501006
KSLC 230054Z 26005KT 10SM FEW020 FEW035 OVC065 05/M02 A3022 RMK AO2 SLP231 T00501017
KSLC 222354Z 00000KT 10SM FEW015 FEW030 OVC055 06/00 A3020 RMK AO2 VIS 2 NW RNWY SLP224 60003 T00560000 10061 20022 53008
KSLC 222254Z 00000KT 10SM FEW015 SCT055 OVC065 06/01 A3018 RMK AO2 SLP219 SH DSNT SE T00560011
KSLC 222154Z 36003KT 10SM FEW015 SCT055 BKN070 06/01 A3017 RMK AO2 SLP214 SH DSNT NE AND SE AND NW T00610011
KSLC 222123Z 00000KT 10SM FEW013 SCT019 OVC049 05/02 A3017 RMK AO2 CIG 025 NW RNWY T00500017
KSLC 222116Z 00000KT 10SM SCT013 BKN018 OVC047 05/02 A3017 RMK AO2 CIG 011 NW RNWY T00500017
KSLC 222054Z 32003KT 10SM SCT011 BKN044 OVC055 05/02 A3017 RMK AO2 SLP215 60003 T00500017 52001
KSLC 222040Z 30003KT 10SM SCT011 BKN044 OVC055 05/02 A3017 RMK AO2 T00500017
KSLC 221954Z 32004KT 10SM BKN011 OVC035 04/02 A3017 RMK AO2 RAB24E51 SLP216 P0000 T00440022
KSLC 221922Z 27004KT 10SM BKN011 OVC038 04/02 A3017 RMK AO2 T00390017
KSLC 221854Z 00000KT 9SM FEW006 BKN037 OVC065 04/02 A3017 RMK AO2 RAE21 SLP216 VCSH P0003 T00390022
KSLC 221831Z 36003KT 7SM SCT017 BKN038 BKN080 03/02 A3017 RMK AO2 RAE21 VCSH P0003 T00330017
KSLC 221819Z 36003KT 6SM -RA BR FEW007 BKN016 BKN065 03/02 A3017 RMK AO2 P0003 T00280022
KSLC 221754Z 34007KT 4SM -RA BR FEW019 BKN026 OVC040 03/02 A3017 RMK AO2 SLP218 VIRGA DSNT NW P0000 60001 T00280017 10044 20028 53024
KSLC 221724Z 34009KT 5SM -RA BR FEW013 BKN024 OVC029 03/01 A3016 RMK AO2 CIG 018 NW RNWY P0000 T00280011
KSLC 221654Z 31007KT 6SM -RA BR SCT034 BKN055 OVC075 03/02 A3014 RMK AO2 RAB08 CIG 030 NW RNWY SLP208 P0000 T00330017
KSLC 221554Z 00000KT 10SM FEW029 SCT045 OVC080 04/02 A3012 RMK AO2 RAB05E14 SLP198 VCSH P0000 T00440022
KSLC 221454Z 15004KT 10SM BKN043 BKN050 BKN065 03/02 A3009 RMK AO2 SLP193 SH DSNT NE AND SE-SW 60001 T00330022 53016
KSLC 221354Z 13003KT 8SM BKN037 OVC050 03/01 A3007 RMK AO2 RAB00E32 SLP179 P0001 T00280011
KSLC 221254Z 12004KT 9SM BKN041 OVC050 03/02 A3005 RMK AO2 RAE03B20E49 SLP176 P0000 T00330017
KSLC 221154Z 11007KT 9SM -RA FEW039 BKN050 OVC065 03/02 A3004 RMK AO2 RAE1056B12E26B47 SLP167 P0000 60000 70001 T00330017 10039 20028 53001
KSLC 221054Z 11007KT 10SM -RA SCT047 BKN070 OVC095 03/01 A3003 RMK AO2 RAB21 SLP166 P0000 T00280011
KSLC 220954Z 14006KT 10SM FEW060 BKN075 OVC085 03/02 A3003 RMK AO2 RAB05E37 SLP168 P0000 T00330017
KSLC 220854Z 12007KT 10SM SCT047 BKN050 OVC075 03/01 A3003 RMK AO2 SLP169 T00330011 50005
KSLC 220754Z 00000KT 10SM BKN060 OVC080 03/01 A3003 RMK AO2 SLP171 T00330011
KSLC 220654Z 12006KT 10SM BKN070 OVC080 03/01 A3003 RMK AO2 SLP170 T00330011 400671011
KSLC 220554Z 13007KT 10SM BKN080 BKN095 03/01 A3001 RMK AO2 SLP159 T00330011 10061 20017 50000
KSLC 220454Z 15004KT 10SM SCT060 BKN080 03/01 A3002 RMK AO2 SLP160 T00330011
KSLC 220354Z 12008KT 9SM FEW075 BKN095 BKN120 03/01 A3001 RMK AO2 SLP159 T00330011
KSLC 220254Z 14005KT 5SM BR FEW070 BKN110 02/M01 A3001 RMK AO2 SLP171 T00171006 51007
KSLC 220154Z 14003KT 5SM HZ OVC090 02/M01 A3001 RMK AO2 SLP173 T00171011
KSLC 220054Z 28005KT 5SM HZ FEW050 BKN090 03/M01 A3002 RMK AO2 SLP172 T00281006
KSLC 212354Z 14003KT 10SM FEW045 SCT095 SCT200 06/02 A2999 RMK AO2 SLP158 60001 T00610022 10067 20006 55002
KSLC 212254Z 13004KT 9SM FEW060 SCT095 SCT200 06/02 A2998 RMK AO2 RAE2156 SLP156 P0000 T00610022
KSLC 212154Z VRB03KT 8SM -RA FEW035 BKN060 BKN080 06/02 A2999 RMK AO2 RAB2058 SLP157 P0000 T00560017
KSLC 212054Z 16003KT 9SM OVC055 04/01 A3000 RMK AO2 SLP152 VCSH 60001 T00440011 56017
KSLC 211954Z 14006KT 8SM FEW038 SCT050 OVC075 03/M01 A3000 RMK AO2 SLP166 VCSH T00281006
KSLC 211854Z 12007KT 8SM FEW030 SCT044 OVC080 02/M01 A3003 RMK AO2 RAE20 SLP178 VCSH P0001 T00171011
KSLC 211754Z 30005KT 7SM -RA BKN045 OVC060 01/M02 A3005 RMK AO2 SLP187 RAB40 P0000 60000 T00061022 10011 21011 53011
KSLC 211654Z 35006KT 9SM SCT065 BKN080 OVC100 01/M02 A3004 RMK AO2 SLP182 T00111022
KSLC 211554Z 00000KT 10SM FEW060 BKN075 BKN150 01/M03 A3002 RMK AO2 SLP175 ACSL DSNT NW T00061028
KSLC 211454Z 00000KT 10SM FEW060 BKN075 BKN090 BKN200 00/M03 A3001 RMK AO2 SLP174 T00001028 53001
KSLC 211354Z 00000KT 9SM OVC080 M01/M03 A3001 RMK AO2 SLP173 T10061033
KSLC 211254Z 35006KT 9SM FEW070 BKN080 BKN120 M01/M03 A3002 RMK AO2 SLP175 T10111028
KSLC 211154Z 00000KT 8SM OVC080 M01/M03 A3001 RMK AO2 SLP172 T10061028 10006 21011 56013
KSLC 211054Z 00000KT 9SM FEW080 SCT120 M01/M03 A3002 RMK AO2 SLP175 T10111028
KSLC 210954Z 00000KT 9SM BKN080 BKN120 M01/M03 A3004 RMK AO2 SLP180 T10061033
KSLC 210854Z 29004KT 9SM SCT070 BKN120 00/M03 A3005 RMK AO2 SLP184 T00001028 58011
KSLC 210754Z 21003KT 10SM FEW070 OVC110 00/M04 A3007 RMK AO2 SLP193 T00001039
KSLC 210654Z COR 33003KT 10SM FEW070 BKN120 01/M04 A3009 RMK AO2 SLP199 T00061039 400281039
KSLC 210554Z 01004KT 10SM FEW070 BKN110 M01/M03 A3009 RMK AO2 SLP202 T10061033 10017 21006 56007
KSLC 210454Z 35005KT 9SM FEW070 BKN120 M01/M03 A3011 RMK AO2 SLP209 T10061033
KSLC 210354Z 30003KT 8SM FEW070 BKN110 01/M03 A3009 RMK AO2 SLP202 T00061033